This is the latest recevied weather packets stored in our database for station/object KG7BDA. If no packets are shown the sender has not sent any weather packets the latest 10 day(s).
| Time | Temp. | Humidity | Pressure | Rain* | Wind** | Luminosity | Snow |
|---|---|---|---|---|---|---|---|
| 1777907717 | 15° C | 56% | 1009.6 hPa | 0 mm | - | - | - |
| 1777906998 | 14.44° C | 57% | 1009.4 hPa | 0 mm | - | - | - |
| 1777906638 | 13.89° C | 58% | 1009.4 hPa | 0 mm | - | - | - |
| 1777906277 | 13.89° C | 60% | 1009.5 hPa | 0 mm | - | - | - |
| 1777905917 | 13.33° C | 61% | 1009.6 hPa | 0 mm | - | - | - |
| 1777905198 | 13.33° C | 59% | 1009.6 hPa | 0 mm | - | - | - |
| 1777904837 | 13.89° C | 59% | 1009.5 hPa | 0 mm | - | - | - |
| 1777904478 | 13.89° C | 57% | 1009.4 hPa | 0 mm | - | - | - |
| 1777904117 | 14.44° C | 57% | 1009.4 hPa | 0 mm | - | - | - |
| 1777903397 | 12.78° C | 65% | 1009.2 hPa | 0 mm | - | - | - |
| 1777903037 | 12.22° C | 68% | 1009.3 hPa | 0 mm | - | - | - |
| 1777902677 | 11.67° C | 66% | 1009.2 hPa | 0 mm | - | - | - |
| 1777902318 | 11.11° C | 66% | 1009.1 hPa | 0 mm | - | - | - |
| 1777901958 | 10.56° C | 71% | 1009.2 hPa | 0 mm | - | - | - |
| 1777901598 | 10° C | 69% | 1009.2 hPa | 0 mm | - | - | - |
| 1777901237 | 10.56° C | 67% | 1009.1 hPa | 0 mm | - | - | - |
| 1777900877 | 10.56° C | 64% | 1009 hPa | 0 mm | - | - | - |
| 1777900517 | 10° C | 63% | 1008.9 hPa | 0 mm | - | - | - |
| 1777900158 | 10.56° C | 62% | 1008.9 hPa | 0 mm | - | - | - |
| 1777899797 | 11.11° C | 60% | 1008.8 hPa | 0 mm | - | - | - |
| 1777899437 | 11.11° C | 60% | 1008.7 hPa | 0 mm | - | - | - |
| 1777899077 | 11.11° C | 60% | 1008.5 hPa | 0 mm | - | - | - |
| 1777898718 | 10.56° C | 62% | 1008.5 hPa | 0 mm | - | - | - |
| 1777898357 | 10° C | 62% | 1008.4 hPa | 0 mm | - | - | - |
| 1777897997 | 10.56° C | 60% | 1008.5 hPa | 0 mm | - | - | - |
* Rain latest hour (hover to see other rain measurements)
** Current wind speed in m/s (hover to see current wind gust speed)